createdAt,value
2022-12-18T00:01:35.823Z,-1.10
2022-12-18T00:04:06.254Z,-1.01
2022-12-18T00:06:39.218Z,-0.93
2022-12-18T00:09:11.369Z,-0.85
2022-12-18T00:11:43.416Z,-0.64
2022-12-18T00:14:12.053Z,-0.50
2022-12-18T00:16:39.113Z,-0.54
2022-12-18T00:19:06.453Z,-0.66
2022-12-18T00:21:39.332Z,-0.54
2022-12-18T00:24:06.822Z,-0.26
2022-12-18T00:26:39.904Z,-0.41
2022-12-18T00:29:15.849Z,-0.41
2022-12-18T00:31:43.438Z,-0.32
2022-12-18T00:34:30.122Z,-0.27
2022-12-18T00:36:59.862Z,-0.43
2022-12-18T00:39:27.661Z,-0.57
2022-12-18T00:41:54.835Z,-0.61
2022-12-18T00:44:26.654Z,-0.28
2022-12-18T00:46:56.427Z,-0.68
2022-12-18T00:49:23.399Z,-0.44
2022-12-18T00:51:51.069Z,0.38
2022-12-18T00:54:17.869Z,0.61
2022-12-18T00:56:49.460Z,0.82
2022-12-18T00:59:18.735Z,0.21
2022-12-18T01:01:46.121Z,0.27
2022-12-18T01:04:18.161Z,0.55
2022-12-18T01:06:45.199Z,0.34
2022-12-18T01:09:14.874Z,0.53
2022-12-18T01:11:42.623Z,1.72
2022-12-18T01:14:11.159Z,1.29
2022-12-18T01:16:40.041Z,1.72
2022-12-18T01:19:07.511Z,2.45
2022-12-18T01:21:34.695Z,2.74
2022-12-18T01:24:04.463Z,2.63
2022-12-18T01:26:31.455Z,1.88
2022-12-18T01:29:01.199Z,1.55
2022-12-18T01:31:32.046Z,2.22
2022-12-18T01:34:01.095Z,1.77
2022-12-18T01:36:31.313Z,1.02
2022-12-18T01:38:58.456Z,1.42
2022-12-18T01:41:27.960Z,1.56
2022-12-18T01:44:00.782Z,0.62
2022-12-18T01:46:33.582Z,0.43
2022-12-18T01:49:01.532Z,0.44
2022-12-18T01:51:29.754Z,0.61
2022-12-18T01:53:56.946Z,0.78
2022-12-18T01:56:29.988Z,0.50
2022-12-18T01:59:05.719Z,0.79
2022-12-18T02:01:33.540Z,0.33
2022-12-18T02:04:23.237Z,0.48
2022-12-18T02:07:12.805Z,0.76
2022-12-18T02:10:03.199Z,0.50
2022-12-18T02:13:05.341Z,0.34
2022-12-18T02:16:09.494Z,0.62
2022-12-18T02:18:42.009Z,0.24
2022-12-18T02:21:33.026Z,0.23
2022-12-18T02:24:53.465Z,0.43
2022-12-18T02:27:25.868Z,0.70
2022-12-18T02:29:58.537Z,1.06
2022-12-18T02:32:33.609Z,0.79
2022-12-18T02:35:07.346Z,0.77
2022-12-18T02:37:37.034Z,0.22
2022-12-18T02:40:10.334Z,0.57
2022-12-18T02:42:42.410Z,0.59
2022-12-18T02:45:09.557Z,0.48
2022-12-18T02:47:43.445Z,0.33
2022-12-18T02:50:39.082Z,0.38
2022-12-18T02:53:57.001Z,0.77
2022-12-18T02:56:53.215Z,0.99
2022-12-18T02:59:38.609Z,0.25
2022-12-18T03:02:34.767Z,0.64
2022-12-18T03:05:15.879Z,0.31
2022-12-18T03:08:02.604Z,0.84
2022-12-18T03:10:30.925Z,0.91
2022-12-18T03:13:06.108Z,0.73
2022-12-18T03:15:46.697Z,0.53
2022-12-18T03:18:22.588Z,0.72
2022-12-18T03:20:49.757Z,0.59
2022-12-18T03:23:25.968Z,-0.15
2022-12-18T03:25:56.477Z,-0.35
2022-12-18T03:28:28.686Z,0.09
2022-12-18T03:30:58.543Z,0.21
2022-12-18T03:33:35.617Z,0.17
2022-12-18T03:36:06.546Z,0.66
2022-12-18T03:38:34.327Z,0.59
2022-12-18T03:41:30.577Z,0.94
2022-12-18T03:44:23.269Z,0.81
2022-12-18T03:47:22.542Z,0.48
2022-12-18T03:50:09.598Z,0.49
2022-12-18T03:53:24.207Z,-0.24
2022-12-18T03:55:53.553Z,-0.51
2022-12-18T03:58:26.431Z,-0.31
2022-12-18T04:00:57.270Z,-0.28
2022-12-18T04:03:28.064Z,0.36
2022-12-18T04:05:55.778Z,0.20
2022-12-18T04:08:28.890Z,0.18
2022-12-18T04:10:55.913Z,-0.20
2022-12-18T04:13:44.789Z,-0.09
2022-12-18T04:16:31.466Z,-0.41
2022-12-18T04:19:00.939Z,-0.27
2022-12-18T04:21:28.007Z,-0.63
2022-12-18T04:24:00.892Z,-0.06
2022-12-18T04:26:27.972Z,0.86
2022-12-18T04:28:57.561Z,0.61
2022-12-18T04:31:24.589Z,0.90
2022-12-18T04:33:51.565Z,0.64
2022-12-18T04:36:23.622Z,0.44
2022-12-18T04:38:53.449Z,0.97
2022-12-18T04:41:20.429Z,-0.05
2022-12-18T04:43:52.246Z,-0.63
2022-12-18T04:46:21.910Z,-1.01
2022-12-18T04:48:49.287Z,-1.07
2022-12-18T04:51:23.303Z,-1.20
2022-12-18T04:53:53.208Z,-1.15
2022-12-18T04:56:22.850Z,-1.18
2022-12-18T04:58:52.684Z,-1.00
2022-12-18T05:01:20.040Z,-1.03
2022-12-18T05:03:49.865Z,-1.15
2022-12-18T05:06:18.474Z,-1.12
2022-12-18T05:08:50.414Z,-0.77
2022-12-18T05:11:17.525Z,-0.47
2022-12-18T05:13:44.952Z,-0.81
2022-12-18T05:16:17.895Z,-0.78
2022-12-18T05:18:44.930Z,-0.85
2022-12-18T05:21:11.879Z,-0.68
2022-12-18T05:23:41.381Z,-0.19
2022-12-18T05:26:17.411Z,-0.44
2022-12-18T05:28:50.082Z,-0.15
2022-12-18T05:31:19.815Z,0.06
2022-12-18T05:33:52.659Z,0.25
2022-12-18T05:36:19.639Z,0.17
2022-12-18T05:38:49.414Z,0.10
2022-12-18T05:41:17.182Z,0.68
2022-12-18T05:43:50.157Z,1.14
2022-12-18T05:46:20.081Z,1.59
2022-12-18T05:48:47.339Z,1.24
2022-12-18T05:51:19.717Z,1.35
2022-12-18T05:53:48.801Z,1.50
2022-12-18T05:56:20.006Z,2.11
2022-12-18T05:58:53.741Z,2.33
2022-12-18T06:01:22.790Z,1.69
2022-12-18T06:03:49.914Z,2.23
2022-12-18T06:06:29.548Z,2.63
2022-12-18T06:08:57.780Z,2.78
2022-12-18T06:11:26.347Z,0.98
2022-12-18T06:13:59.030Z,1.56
2022-12-18T06:16:28.385Z,1.06
2022-12-18T06:19:01.970Z,1.91
2022-12-18T06:21:34.778Z,2.07
2022-12-18T06:24:03.165Z,1.47
2022-12-18T06:26:30.152Z,1.23
2022-12-18T06:29:03.022Z,1.34
2022-12-18T06:31:30.119Z,0.51
2022-12-18T06:33:57.879Z,0.77
2022-12-18T06:36:25.322Z,0.88
2022-12-18T06:38:52.240Z,0.83
2022-12-18T06:41:21.062Z,0.52
2022-12-18T06:43:49.359Z,0.33
2022-12-18T06:49:02.878Z,0.03
2022-12-18T06:51:29.912Z,-0.01
2022-12-18T06:53:56.710Z,0.44
2022-12-18T06:56:23.669Z,1.17
2022-12-18T06:58:56.430Z,1.53
2022-12-18T07:01:24.298Z,0.69
2022-12-18T07:04:10.940Z,0.66
2022-12-18T07:06:39.948Z,1.21
2022-12-18T07:09:06.876Z,0.06
2022-12-18T07:11:34.343Z,-0.28
2022-12-18T07:14:07.462Z,-0.70
2022-12-18T07:16:39.368Z,-0.64
2022-12-18T07:19:08.737Z,-0.04
2022-12-18T07:21:35.450Z,0.41
2022-12-18T07:24:03.618Z,1.44
2022-12-18T07:26:30.430Z,1.93
2022-12-18T07:28:58.664Z,2.19
2022-12-18T07:31:25.817Z,0.51
2022-12-18T07:33:53.103Z,-0.10
2022-12-18T07:36:20.200Z,0.19
2022-12-18T07:38:50.565Z,0.00
2022-12-18T07:41:18.828Z,0.74
2022-12-18T07:44:01.821Z,0.18
2022-12-18T07:46:28.800Z,0.34
2022-12-18T07:48:55.866Z,0.60
2022-12-18T07:51:23.683Z,1.08
2022-12-18T07:53:52.097Z,1.21
2022-12-18T07:56:28.732Z,1.78
2022-12-18T07:58:57.113Z,2.00
2022-12-18T08:01:24.080Z,2.23
2022-12-18T08:03:52.336Z,1.60
2022-12-18T08:06:23.933Z,1.61
2022-12-18T08:08:55.014Z,0.26
2022-12-18T08:11:22.645Z,1.29
2022-12-18T08:13:50.469Z,1.71
2022-12-18T08:16:17.466Z,1.54
2022-12-18T08:18:44.661Z,1.50
2022-12-18T08:21:21.459Z,2.03
2022-12-18T08:23:48.719Z,1.89
2022-12-18T08:26:16.170Z,2.15
2022-12-18T08:28:43.260Z,1.93
2022-12-18T08:31:10.219Z,1.28
2022-12-18T08:33:38.240Z,0.88
2022-12-18T08:36:09.753Z,1.59
2022-12-18T08:38:37.339Z,1.58
2022-12-18T08:41:06.402Z,0.98
2022-12-18T08:43:33.238Z,1.18
2022-12-18T08:46:00.351Z,1.77
2022-12-18T08:48:29.866Z,1.67
2022-12-18T08:51:00.535Z,1.31
2022-12-18T08:53:30.352Z,2.56
2022-12-18T08:56:01.421Z,1.88
2022-12-18T08:58:28.501Z,1.73
2022-12-18T09:01:04.464Z,2.71
2022-12-18T09:03:42.955Z,2.78
2022-12-18T09:06:10.102Z,1.56
2022-12-18T09:08:39.972Z,2.50
2022-12-18T09:11:12.816Z,3.31
2022-12-18T09:13:43.004Z,3.64
2022-12-18T09:19:35.890Z,3.83
2022-12-18T09:22:02.776Z,2.86
2022-12-18T09:24:34.682Z,1.80
2022-12-18T09:27:08.553Z,2.45
2022-12-18T09:29:35.933Z,2.86
2022-12-18T09:32:03.478Z,2.27
2022-12-18T09:34:31.918Z,3.28
2022-12-18T09:36:58.936Z,4.02
2022-12-18T09:39:25.885Z,2.59
2022-12-18T09:41:59.131Z,3.35
2022-12-18T09:44:45.954Z,2.50
2022-12-18T09:47:21.697Z,3.49
2022-12-18T09:49:51.026Z,3.57
2022-12-18T09:52:34.248Z,2.13
2022-12-18T09:55:06.913Z,2.30
2022-12-18T09:57:35.353Z,3.29
2022-12-18T10:00:17.928Z,2.66
2022-12-18T10:02:51.348Z,2.83
2022-12-18T10:05:22.080Z,2.86
2022-12-18T10:08:25.164Z,3.07
2022-12-18T10:10:58.455Z,3.30
2022-12-18T10:13:44.136Z,3.25
2022-12-18T10:16:14.873Z,4.19
2022-12-18T10:19:26.172Z,3.01
2022-12-18T10:22:16.613Z,3.56
2022-12-18T10:24:48.230Z,3.15
2022-12-18T10:27:19.897Z,3.73
2022-12-18T10:29:50.327Z,4.22
2022-12-18T10:32:22.355Z,4.57
2022-12-18T10:34:52.950Z,4.31
2022-12-18T10:37:26.770Z,4.24
2022-12-18T10:40:10.157Z,5.09
2022-12-18T10:42:37.001Z,4.90
2022-12-18T10:52:02.136Z,4.69
2022-12-18T10:54:29.931Z,4.82
2022-12-18T10:57:34.006Z,4.40
2022-12-18T11:00:13.187Z,5.24
2022-12-18T11:02:41.214Z,5.39
2022-12-18T11:05:34.333Z,5.27
2022-12-18T11:08:37.650Z,4.83
2022-12-18T11:11:06.509Z,4.90
2022-12-18T11:13:33.233Z,4.74
2022-12-18T11:16:03.102Z,5.11
2022-12-18T11:18:35.550Z,5.34
2022-12-18T11:21:10.006Z,5.29
2022-12-18T11:23:37.235Z,5.11
2022-12-18T11:26:09.592Z,5.35
2022-12-18T11:29:20.753Z,4.22
2022-12-18T11:31:48.548Z,4.47
2022-12-18T11:34:31.028Z,4.02
2022-12-18T11:36:58.959Z,3.57
2022-12-18T11:39:47.551Z,4.52
2022-12-18T11:42:25.516Z,4.63
2022-12-18T11:45:09.470Z,4.92
2022-12-18T11:47:46.505Z,3.43
2022-12-18T11:50:27.617Z,4.07
2022-12-18T11:53:02.934Z,4.54
2022-12-18T11:55:47.683Z,4.17
2022-12-18T11:58:45.896Z,3.80
2022-12-18T12:01:44.398Z,4.44
2022-12-18T12:04:52.451Z,4.07
2022-12-18T12:07:42.059Z,3.34
2022-12-18T12:10:46.537Z,3.72
2022-12-18T12:13:37.022Z,3.70
2022-12-18T12:16:21.232Z,4.68
2022-12-18T12:19:57.143Z,4.94
2022-12-18T12:23:03.560Z,4.92
2022-12-18T12:25:40.710Z,4.80
2022-12-18T12:28:13.523Z,4.15
2022-12-18T12:30:50.785Z,4.28
2022-12-18T12:33:35.051Z,4.37
2022-12-18T12:36:05.914Z,3.98
2022-12-18T12:38:38.382Z,4.26
2022-12-18T12:41:10.921Z,5.06
2022-12-18T12:46:36.490Z,5.04
2022-12-18T12:49:03.989Z,5.50
2022-12-18T12:51:35.181Z,4.53
2022-12-18T12:54:03.892Z,4.02
2022-12-18T12:56:44.509Z,3.82
2022-12-18T12:59:23.838Z,4.73
2022-12-18T13:02:13.616Z,4.83
2022-12-18T13:04:53.178Z,4.64
2022-12-18T13:07:25.560Z,4.70
2022-12-18T13:10:19.097Z,3.92
2022-12-18T13:13:07.318Z,4.74
2022-12-18T13:13:43.212Z,5.06
2022-12-18T13:15:48.498Z,5.03
2022-12-18T13:18:24.867Z,5.56
2022-12-18T13:21:13.782Z,5.30
2022-12-18T13:23:41.101Z,5.02
2022-12-18T13:26:08.105Z,5.00
2022-12-18T13:28:34.887Z,5.61
2022-12-18T13:31:02.074Z,5.60
2022-12-18T13:33:34.976Z,6.20
2022-12-18T13:36:04.081Z,6.39
2022-12-18T13:38:37.533Z,6.12
2022-12-18T13:41:38.154Z,5.51
2022-12-18T13:44:23.578Z,6.01
2022-12-18T13:46:51.195Z,5.10
2022-12-18T13:49:25.769Z,5.03
2022-12-18T13:51:57.278Z,5.64
2022-12-18T13:54:43.347Z,5.09
2022-12-18T13:57:33.429Z,5.68
2022-12-18T14:00:21.430Z,5.76
2022-12-18T14:02:48.327Z,5.48
2022-12-18T14:05:24.823Z,5.05
2022-12-18T14:08:27.539Z,5.82
2022-12-18T14:10:54.220Z,6.01
2022-12-18T14:13:38.424Z,5.32
2022-12-18T14:16:07.214Z,5.48
2022-12-18T14:18:45.466Z,5.79
2022-12-18T14:21:30.853Z,4.46
2022-12-18T14:24:04.721Z,4.30
2022-12-18T14:26:32.532Z,5.05
2022-12-18T14:29:00.661Z,4.50
2022-12-18T14:31:28.691Z,4.35
2022-12-18T14:33:55.579Z,4.44
2022-12-18T14:36:25.542Z,4.78
2022-12-18T14:42:39.979Z,4.57
2022-12-18T14:45:41.394Z,4.68
2022-12-18T14:48:18.240Z,4.90
2022-12-18T14:50:58.628Z,4.59
2022-12-18T14:53:35.290Z,4.97
2022-12-18T14:56:02.629Z,5.52
2022-12-18T14:58:29.485Z,5.22
2022-12-18T15:00:56.295Z,4.78
2022-12-18T15:03:23.641Z,4.80
2022-12-18T15:05:51.816Z,5.08
2022-12-18T15:08:35.165Z,4.74
2022-12-18T15:11:26.031Z,5.34
2022-12-18T15:13:53.318Z,5.55
2022-12-18T15:16:20.157Z,4.65
2022-12-18T15:18:46.949Z,4.92
2022-12-18T15:21:18.246Z,4.63
2022-12-18T15:23:45.221Z,4.28
2022-12-18T15:26:16.361Z,4.28
2022-12-18T15:28:47.597Z,3.95
2022-12-18T15:31:14.214Z,3.67
2022-12-18T15:33:45.447Z,4.57
2022-12-18T15:36:14.115Z,4.92
2022-12-18T15:38:40.872Z,3.95
2022-12-18T15:41:14.385Z,4.66
2022-12-18T15:43:41.731Z,4.33
2022-12-18T15:46:18.782Z,3.96
2022-12-18T15:48:57.983Z,3.13
2022-12-18T15:51:36.581Z,4.13
2022-12-18T15:54:05.968Z,4.51
2022-12-18T15:56:32.898Z,4.61
2022-12-18T15:59:01.615Z,4.18
2022-12-18T16:01:30.306Z,4.66
2022-12-18T16:03:57.780Z,4.73
2022-12-18T16:06:25.073Z,4.55
2022-12-18T16:08:54.469Z,4.27
2022-12-18T16:11:29.753Z,4.50
2022-12-18T16:13:56.877Z,4.32
2022-12-18T16:16:26.103Z,3.83
2022-12-18T16:18:54.008Z,2.79
2022-12-18T16:21:22.254Z,3.15
2022-12-18T16:23:49.989Z,2.56
2022-12-18T16:26:17.124Z,2.56
2022-12-18T16:28:48.615Z,2.63
2022-12-18T16:31:15.801Z,3.24
2022-12-18T16:33:44.421Z,3.64
2022-12-18T16:36:12.004Z,3.36
2022-12-18T16:38:39.074Z,3.45
2022-12-18T16:41:21.158Z,2.56
2022-12-18T16:43:54.449Z,3.20
2022-12-18T16:46:22.006Z,1.91
2022-12-18T16:48:49.118Z,2.47
2022-12-18T16:51:16.834Z,1.93
2022-12-18T16:53:45.167Z,1.45
2022-12-18T16:56:12.349Z,1.26
2022-12-18T16:58:39.059Z,1.45
2022-12-18T17:01:09.339Z,1.41
2022-12-18T17:03:36.963Z,2.30
2022-12-18T17:06:07.550Z,2.63
2022-12-18T17:08:35.226Z,2.26
2022-12-18T17:11:07.508Z,3.20
2022-12-18T17:13:34.420Z,3.41
2022-12-18T17:16:05.385Z,3.87
2022-12-18T17:18:33.529Z,4.02
2022-12-18T17:21:01.616Z,3.68
2022-12-18T17:23:28.969Z,4.04
2022-12-18T17:25:57.622Z,3.97
2022-12-18T17:28:25.899Z,4.13
2022-12-18T17:30:53.660Z,3.86
2022-12-18T17:33:41.127Z,3.62
2022-12-18T17:36:08.530Z,3.66
2022-12-18T17:38:35.627Z,3.76
2022-12-18T17:41:09.443Z,3.10
2022-12-18T17:43:36.600Z,3.74
2022-12-18T17:46:03.714Z,2.81
2022-12-18T17:48:31.131Z,3.07
2022-12-18T17:51:02.086Z,2.46
2022-12-18T17:53:29.071Z,1.68
2022-12-18T17:55:59.081Z,1.64
2022-12-18T17:58:40.600Z,2.14
2022-12-18T18:01:07.784Z,2.45
2022-12-18T18:03:37.018Z,1.78
2022-12-18T18:06:04.062Z,2.19
2022-12-18T18:08:30.870Z,2.95
2022-12-18T18:10:58.193Z,3.07
2022-12-18T18:13:27.936Z,3.30
2022-12-18T18:15:57.798Z,3.10
2022-12-18T18:18:24.874Z,3.54
2022-12-18T18:20:51.718Z,3.91
2022-12-18T18:23:21.177Z,2.33
2022-12-18T18:25:54.278Z,2.28
2022-12-18T18:28:22.603Z,1.79
2022-12-18T18:30:49.533Z,1.47
2022-12-18T18:33:16.727Z,1.16
2022-12-18T18:35:59.122Z,1.02
2022-12-18T18:38:26.174Z,1.77
2022-12-18T18:41:02.724Z,1.40
2022-12-18T18:43:29.474Z,1.05
2022-12-18T18:46:00.126Z,0.88
2022-12-18T18:48:42.394Z,0.83
2022-12-18T18:51:21.341Z,0.90
2022-12-18T18:53:49.448Z,0.86
2022-12-18T18:56:56.428Z,0.87
2022-12-18T18:59:05.724Z,0.95
2022-12-18T19:01:33.052Z,1.62
2022-12-18T19:04:03.259Z,2.49
2022-12-18T19:06:33.353Z,3.08
2022-12-18T19:09:01.813Z,3.64
2022-12-18T19:11:33.174Z,3.46
2022-12-18T19:14:07.193Z,1.29
2022-12-18T19:16:35.563Z,1.05
2022-12-18T19:19:07.931Z,1.55
2022-12-18T19:21:39.101Z,1.14
2022-12-18T19:24:07.105Z,1.50
2022-12-18T19:26:34.384Z,1.24
2022-12-18T19:29:02.732Z,1.38
2022-12-18T19:31:35.697Z,1.62
2022-12-18T19:34:04.028Z,1.52
2022-12-18T19:36:31.388Z,1.34
2022-12-18T19:38:59.676Z,1.22
2022-12-18T19:41:29.158Z,1.21
2022-12-18T19:43:59.087Z,1.61
2022-12-18T19:46:25.865Z,1.93
2022-12-18T19:48:53.730Z,2.15
2022-12-18T19:51:28.468Z,2.99
2022-12-18T19:53:58.923Z,3.57
2022-12-18T19:56:32.917Z,4.04
2022-12-18T19:59:01.527Z,4.08
2022-12-18T20:01:29.248Z,4.03
2022-12-18T20:03:58.868Z,4.31
2022-12-18T20:06:34.248Z,4.55
2022-12-18T20:09:05.556Z,4.63
2022-12-18T20:11:33.077Z,3.46
2022-12-18T20:14:00.141Z,2.58
2022-12-18T20:16:28.462Z,2.31
2022-12-18T20:18:57.477Z,2.19
2022-12-18T20:21:24.702Z,3.06
2022-12-18T20:23:52.418Z,3.69
2022-12-18T20:26:20.017Z,4.11
2022-12-18T20:28:47.008Z,4.03
2022-12-18T20:31:14.313Z,4.34
2022-12-18T20:33:42.254Z,4.43
2022-12-18T20:36:12.728Z,4.44
2022-12-18T20:38:41.038Z,4.60
2022-12-18T20:41:13.631Z,4.01
2022-12-18T20:43:41.141Z,3.91
2022-12-18T20:46:12.339Z,3.62
2022-12-18T20:49:29.455Z,4.15
2022-12-18T20:52:02.433Z,4.39
2022-12-18T20:54:30.424Z,4.60
2022-12-18T20:56:57.721Z,4.71
2022-12-18T20:59:26.265Z,4.89
2022-12-18T21:02:02.253Z,4.68
2022-12-18T21:04:29.388Z,4.38
2022-12-18T21:07:02.333Z,4.26
2022-12-18T21:09:37.605Z,4.41
2022-12-18T21:12:13.946Z,4.92
2022-12-18T21:14:46.377Z,5.11
2022-12-18T21:17:15.829Z,5.31
2022-12-18T21:19:43.292Z,4.86
2022-12-18T21:22:13.510Z,3.85
2022-12-18T21:24:40.646Z,3.08
2022-12-18T21:27:07.562Z,3.07
2022-12-18T21:29:34.547Z,4.22
2022-12-18T21:32:02.578Z,4.75
2022-12-18T21:34:32.546Z,4.97
2022-12-18T21:37:00.495Z,5.17
2022-12-18T21:39:29.970Z,5.37
2022-12-18T21:41:57.430Z,5.24
2022-12-18T21:44:24.675Z,3.88
2022-12-18T21:47:04.546Z,2.67
2022-12-18T21:49:41.596Z,2.30
2022-12-18T21:52:10.701Z,2.66
2022-12-18T21:54:37.702Z,2.25
2022-12-18T21:57:07.700Z,2.31
2022-12-18T21:59:39.013Z,2.40
2022-12-18T22:02:26.360Z,2.52
2022-12-18T22:04:54.007Z,2.49
2022-12-18T22:07:30.257Z,2.25
2022-12-18T22:09:57.755Z,2.19
2022-12-18T22:12:29.148Z,2.24
2022-12-18T22:14:56.358Z,3.00
2022-12-18T22:17:23.973Z,3.00
2022-12-18T22:19:53.778Z,3.69
2022-12-18T22:22:20.882Z,4.37
2022-12-18T22:24:53.312Z,4.75
2022-12-18T22:27:25.036Z,3.17
2022-12-18T22:29:51.748Z,2.41
2022-12-18T22:32:24.866Z,2.09
2022-12-18T22:35:07.287Z,2.45
2022-12-18T22:37:38.727Z,3.61
2022-12-18T22:40:07.523Z,4.25
2022-12-18T22:42:51.334Z,3.70
2022-12-18T22:45:19.768Z,3.15
2022-12-18T22:47:46.634Z,4.16
2022-12-18T22:50:14.267Z,4.79
2022-12-18T22:52:41.013Z,5.15
2022-12-18T22:55:09.671Z,5.40
2022-12-18T22:57:36.700Z,5.56
2022-12-18T23:00:05.535Z,5.60
2022-12-18T23:02:33.366Z,4.86
2022-12-18T23:05:00.283Z,4.33
2022-12-18T23:07:38.435Z,3.67
2022-12-18T23:10:06.698Z,3.14
2022-12-18T23:12:33.638Z,4.05
2022-12-18T23:15:03.911Z,4.81
2022-12-18T23:17:30.881Z,4.93
2022-12-18T23:19:58.258Z,4.61
2022-12-18T23:22:25.940Z,2.92
2022-12-18T23:24:52.963Z,2.36
2022-12-18T23:27:21.055Z,2.15
2022-12-18T23:29:48.626Z,3.22
2022-12-18T23:32:16.069Z,3.78
2022-12-18T23:34:43.218Z,2.83
2022-12-18T23:37:10.448Z,3.41
2022-12-18T23:39:37.179Z,4.00
2022-12-18T23:42:04.558Z,4.35
2022-12-18T23:44:32.995Z,4.45
2022-12-18T23:46:59.899Z,4.05
2022-12-18T23:49:27.017Z,4.23
2022-12-18T23:51:54.450Z,4.01
2022-12-18T23:54:25.595Z,3.06
2022-12-18T23:57:00.551Z,3.27
2022-12-18T23:59:29.724Z,4.00
